METAR / TAF

Die METAR- und TAF-Liste ist aus technischen Gründen (Verfügbarkeit, Update-Zyklen) nicht für ein Meteo-Briefing gedacht. Benutzen Sie stattdessen skybriefing der Skyguide  oder das TAMSI (MeteoSchweiz-eigene Meteo Selfbriefing-Plattform für Firmen aus der Aviatik; Anfragen über das

Kontaktformular

METAR Schweiz

METAR     LSZH 210450Z VRB02KT 9999 MIFG NSC 08/06 Q1022 NOSIG=
METAR     LSZH 210520Z 00000KT CAVOK 08/07 Q1022 NOSIG=
METAR     LSGG 210450Z VRB02KT CAVOK 10/08 Q1022 NOSIG=
METAR     LSGG 210520Z VRB01KT CAVOK 10/07 Q1022 NOSIG=
METAR     LFSB 210500Z 19004KT CAVOK 10/07 Q1021 NOSIG=
METAR     LSZB 210450Z 31002KT CAVOK 08/06 Q1022 NOSIG=
METAR     LSZB 210520Z VRB01KT CAVOK 08/06 Q1022 NOSIG=
METAR     LSZA 210450Z VRB01KT CAVOK 10/08 Q1022 NOSIG=
METAR     LSZA 210520Z VRB02KT CAVOK 10/09 Q1022 NOSIG=
METAR     LSZG 210450Z AUTO 28003KT CAVOK 08/08 Q1022=
METAR     LSZG 210520Z AUTO 13001KT CAVOK 07/07 Q1022=
METAR     LSZR 210450Z AUTO 09004KT CAVOK 08/06 Q1021=
METAR     LSZR 210520Z VRB02KT CAVOK 08/06 Q1022 NOSIG RMK A=
METAR     LSGS 210450Z AUTO 08003KT 060V120 CAVOK 11/02 Q1024=
METAR     LSGS 210520Z AUTO VRB02KT CAVOK 11/03 Q1024=
METAR     LSGC 210450Z AUTO 00000KT CAVOK 07/05 Q1023=
METAR     LSGC 210520Z AUTO 00000KT CAVOK 08/06 Q1023=
METAR     LSZC 210450Z AUTO 22003KT CAVOK 08/04 Q1022=
METAR     LSZC 210520Z AUTO VRB03KT CAVOK 09/05 Q1022=
METAR RRA LSZL 210450Z AUTO VRB03KT 9999NDV NCD 11/06 Q1022 RMK=
METAR     LSZL 210520Z NIL=
METAR     LSZS 210450Z AUTO 22001KT CAVOK M02/M04 Q1027=
METAR     LSZS 210520Z AUTO 17001KT CAVOK M02/M04 Q1027=
METAR RRA LSMA 210450Z AUTO 22003KT 9999NDV NCD 08/06 Q1022 RMK=
METAR     LSMA 210520Z NIL=
METAR RRA LSMD 210450Z AUTO 00000KT 9999NDV NCD 09/05 Q1022 RMK=
METAR     LSMD 210520Z NIL=
METAR RRA LSME 210450Z AUTO 02001KT 9999NDV NCD 08/06 Q1022 RMK=
METAR     LSME 210520Z NIL=
METAR RRA LSMM 210450Z AUTO 12005KT 110V190 9999NDV NCD 05/02 Q1023
               RMK=
METAR     LSMM 210520Z NIL=
METAR RRA LSMP 210450Z AUTO 00000KT 9999NDV NCD 08/07 Q1022 RMK=
METAR     LSMP 210520Z NIL=
METAR     LSMS 210450Z AUTO 08003KT 060V120 CAVOK 11/02 Q1024=
METAR     LSMS 210520Z AUTO VRB02KT CAVOK 11/03 Q1024=
Aktualisiert am Samstag, 21. April 2018, 07:29 Uhr

TAF Schweiz

TAF     LSZH 210225Z 2103/2209 VRB03KT CAVOK TX27/2115Z TN07/2104Z
             TN08/2204Z=
TAF     LSGG 210225Z 2103/2209 VRB03KT CAVOK TX27/2115Z TN09/2105Z
             TN10/2205Z BECMG 2110/2112 04006KT 9999 FEW060 BECMG
             2117/2119 VRB03KT CAVOK=
TAF     LFSB 202300Z 2100/2124 VRB03KT CAVOK=
TAF     LSGS 210225Z 2103/2112 VRB05KT CAVOK=
TAF     LSZA 210225Z 2103/2112 20008KT CAVOK PROB30 2110/2112 9999
             FEW060=
TAF     LSZB 210225Z 2103/2112 VRB03KT CAVOK=
TAF     LSZR 210225Z 2103/2112 VRB03KT CAVOK=
TAF     LSMA 201625Z 2017/2123 VRB03KT CAVOK BECMG 2109/2112
             03012KT BECMG 2115/2118 VRB03KT=
TAF     LSMD 201625Z 2017/2123 VRB03KT CAVOK=
TAF     LSME 201625Z 2017/2123 VRB03KT CAVOK=
TAF     LSMM 201625Z 2017/2123 VRB03KT CAVOK PROB40 TEMPO 2109/2116
             27012KT=
TAF     LSMP 200925Z 2010/2116 VRB03KT CAVOK=
Aktualisiert am Samstag, 21. April 2018, 06:05 Uhr